createdAt,value
2022-12-28T00:01:21.371Z,6.04
2022-12-28T00:03:49.192Z,6.00
2022-12-28T00:06:16.829Z,6.03
2022-12-28T00:08:44.258Z,6.12
2022-12-28T00:11:27.756Z,6.12
2022-12-28T00:13:56.051Z,6.09
2022-12-28T00:16:33.550Z,6.02
2022-12-28T00:19:02.307Z,5.92
2022-12-28T00:21:29.232Z,6.10
2022-12-28T00:23:58.235Z,6.13
2022-12-28T00:26:27.470Z,6.14
2022-12-28T00:28:58.273Z,6.11
2022-12-28T00:31:28.822Z,6.10
2022-12-28T00:33:56.305Z,6.15
2022-12-28T00:36:22.991Z,6.17
2022-12-28T00:38:49.851Z,6.26
2022-12-28T00:41:17.061Z,6.14
2022-12-28T00:43:44.601Z,6.06
2022-12-28T00:46:11.308Z,6.18
2022-12-28T00:48:38.055Z,6.08
2022-12-28T00:51:07.511Z,6.17
2022-12-28T00:53:34.345Z,6.13
2022-12-28T00:56:12.771Z,6.12
2022-12-28T00:58:39.637Z,6.17
2022-12-28T01:01:12.280Z,6.17
2022-12-28T01:03:39.230Z,6.26
2022-12-28T01:06:07.063Z,6.21
2022-12-28T01:08:35.441Z,6.21
2022-12-28T01:11:11.080Z,6.25
2022-12-28T01:13:38.606Z,6.28
2022-12-28T01:16:17.315Z,6.19
2022-12-28T01:18:45.527Z,6.34
2022-12-28T01:21:16.452Z,6.28
2022-12-28T01:23:48.115Z,6.31
2022-12-28T01:26:15.430Z,6.33
2022-12-28T01:28:42.481Z,6.26
2022-12-28T01:31:14.481Z,6.34
2022-12-28T01:33:42.439Z,6.38
2022-12-28T01:36:11.682Z,6.31
2022-12-28T01:38:38.351Z,6.34
2022-12-28T01:41:16.750Z,6.33
2022-12-28T01:43:44.858Z,6.34
2022-12-28T01:46:21.850Z,6.42
2022-12-28T01:49:05.735Z,6.30
2022-12-28T01:51:50.344Z,6.32
2022-12-28T01:54:18.741Z,6.24
2022-12-28T01:56:46.235Z,6.15
2022-12-28T01:59:13.090Z,6.15
2022-12-28T02:01:40.545Z,6.15
2022-12-28T02:04:07.352Z,6.02
2022-12-28T02:06:34.102Z,6.02
2022-12-28T02:09:22.951Z,6.15
2022-12-28T02:11:50.393Z,6.16
2022-12-28T02:14:19.954Z,6.07
2022-12-28T02:16:47.058Z,6.00
2022-12-28T02:19:19.509Z,6.04
2022-12-28T02:22:08.452Z,5.86
2022-12-28T02:25:12.142Z,5.90
2022-12-28T02:27:51.922Z,5.78
2022-12-28T02:30:19.520Z,5.87
2022-12-28T02:32:58.448Z,5.81
2022-12-28T02:35:48.269Z,5.82
2022-12-28T02:38:20.196Z,5.71
2022-12-28T02:41:09.333Z,5.79
2022-12-28T02:43:36.306Z,5.80
2022-12-28T02:46:43.666Z,5.73
2022-12-28T02:49:43.591Z,5.70
2022-12-28T02:52:29.112Z,5.75
2022-12-28T02:55:45.152Z,5.80
2022-12-28T02:58:39.068Z,5.65
2022-12-28T03:01:26.149Z,5.57
2022-12-28T03:04:37.663Z,5.62
2022-12-28T03:07:35.759Z,5.66
2022-12-28T03:10:15.693Z,5.64
2022-12-28T03:12:51.518Z,5.58
2022-12-28T03:15:29.899Z,5.52
2022-12-28T03:18:26.309Z,5.68
2022-12-28T03:21:15.012Z,5.55
2022-12-28T03:24:03.238Z,5.55
2022-12-28T03:26:51.948Z,5.56
2022-12-28T03:29:41.297Z,5.53
2022-12-28T03:32:09.455Z,5.51
2022-12-28T03:34:36.924Z,5.53
2022-12-28T03:37:25.798Z,5.47
2022-12-28T03:40:08.802Z,5.50
2022-12-28T03:43:07.263Z,5.54
2022-12-28T03:46:04.881Z,5.46
2022-12-28T03:48:34.292Z,5.54
2022-12-28T03:51:01.457Z,5.49
2022-12-28T03:53:36.434Z,5.50
2022-12-28T03:56:18.404Z,5.39
2022-12-28T03:58:45.426Z,5.48
2022-12-28T04:01:12.637Z,5.43
2022-12-28T04:03:39.812Z,5.50
2022-12-28T04:06:06.951Z,5.50
2022-12-28T04:08:34.160Z,5.56
2022-12-28T04:11:02.143Z,5.55
2022-12-28T04:13:30.829Z,5.53
2022-12-28T04:15:58.335Z,5.55
2022-12-28T04:18:25.217Z,5.48
2022-12-28T04:20:53.025Z,5.53
2022-12-28T04:23:20.224Z,5.52
2022-12-28T04:26:11.366Z,5.50
2022-12-28T04:28:38.829Z,5.51
2022-12-28T04:31:07.024Z,5.50
2022-12-28T04:33:36.204Z,5.52
2022-12-28T04:36:06.989Z,5.44
2022-12-28T04:38:34.494Z,5.43
2022-12-28T04:41:02.060Z,5.54
2022-12-28T04:43:30.985Z,5.53
2022-12-28T04:45:58.982Z,5.47
2022-12-28T04:48:26.729Z,5.61
2022-12-28T04:50:55.070Z,5.55
2022-12-28T04:53:22.187Z,5.55
2022-12-28T04:55:49.481Z,5.61
2022-12-28T04:58:16.539Z,5.57
2022-12-28T05:00:43.629Z,5.61
2022-12-28T05:03:10.348Z,5.65
2022-12-28T05:05:38.225Z,5.61
2022-12-28T05:08:05.590Z,5.66
2022-12-28T05:10:32.272Z,5.70
2022-12-28T05:12:58.988Z,5.67
2022-12-28T05:15:25.743Z,5.66
2022-12-28T05:17:52.502Z,5.74
2022-12-28T05:20:20.603Z,5.70
2022-12-28T05:22:47.332Z,5.72
2022-12-28T05:25:14.138Z,5.73
2022-12-28T05:27:42.076Z,5.79
2022-12-28T05:30:09.353Z,5.82
2022-12-28T05:32:36.163Z,5.80
2022-12-28T05:35:02.932Z,5.74
2022-12-28T05:37:29.645Z,5.79
2022-12-28T05:39:56.624Z,5.78
2022-12-28T05:42:23.343Z,5.77
2022-12-28T05:44:50.054Z,5.76
2022-12-28T05:47:16.705Z,5.86
2022-12-28T05:49:43.536Z,5.79
2022-12-28T05:52:10.354Z,5.83
2022-12-28T05:54:37.006Z,5.85
2022-12-28T05:57:03.767Z,5.90
2022-12-28T05:59:30.469Z,5.86
2022-12-28T06:01:57.294Z,5.90
2022-12-28T06:04:24.754Z,5.86
2022-12-28T06:06:51.510Z,5.83
2022-12-28T06:09:18.224Z,5.92
2022-12-28T06:11:45.873Z,5.97
2022-12-28T06:14:13.040Z,5.84
2022-12-28T06:16:41.908Z,5.80
2022-12-28T06:19:12.462Z,5.85
2022-12-28T06:21:40.458Z,5.97
2022-12-28T06:24:27.533Z,5.99
2022-12-28T06:26:54.196Z,5.99
2022-12-28T06:29:21.369Z,5.96
2022-12-28T06:31:49.180Z,6.02
2022-12-28T06:34:15.947Z,5.98
2022-12-28T06:36:45.395Z,5.95
2022-12-28T06:39:14.099Z,6.13
2022-12-28T06:41:41.539Z,6.10
2022-12-28T06:44:10.678Z,6.13
2022-12-28T06:46:37.937Z,6.15
2022-12-28T06:49:04.788Z,6.11
2022-12-28T06:51:36.198Z,6.19
2022-12-28T06:54:03.030Z,6.17
2022-12-28T06:56:32.373Z,6.22
2022-12-28T06:59:03.286Z,6.28
2022-12-28T07:01:33.976Z,6.28
2022-12-28T07:04:03.349Z,6.23
2022-12-28T07:06:34.071Z,6.20
2022-12-28T07:09:02.859Z,6.33
2022-12-28T07:11:30.382Z,6.42
2022-12-28T07:13:57.159Z,6.32
2022-12-28T07:16:27.109Z,6.31
2022-12-28T07:18:53.918Z,6.32
2022-12-28T07:21:25.632Z,6.36
2022-12-28T07:23:53.967Z,6.46
2022-12-28T07:26:23.267Z,6.33
2022-12-28T07:28:52.542Z,6.40
2022-12-28T07:31:21.837Z,6.55
2022-12-28T07:33:50.161Z,6.40
2022-12-28T07:36:19.831Z,6.44
2022-12-28T07:38:46.856Z,6.53
2022-12-28T07:41:25.655Z,6.49
2022-12-28T07:43:52.599Z,6.50
2022-12-28T07:46:25.617Z,6.50
2022-12-28T07:48:53.545Z,6.50
2022-12-28T07:51:27.190Z,6.56
2022-12-28T07:53:55.159Z,6.55
2022-12-28T07:56:23.547Z,6.52
2022-12-28T07:58:54.825Z,6.60
2022-12-28T08:01:24.208Z,6.68
2022-12-28T08:03:56.497Z,6.68
2022-12-28T08:06:23.788Z,6.78
2022-12-28T08:08:56.626Z,6.77
2022-12-28T08:11:26.475Z,6.72
2022-12-28T08:13:55.355Z,6.76
2022-12-28T08:16:24.456Z,6.72
2022-12-28T08:18:51.222Z,6.73
2022-12-28T08:21:23.839Z,6.76
2022-12-28T08:23:50.937Z,6.76
2022-12-28T08:26:27.023Z,6.82
2022-12-28T08:28:56.445Z,6.79
2022-12-28T08:31:26.207Z,6.84
2022-12-28T08:33:54.628Z,6.88
2022-12-28T08:36:21.978Z,6.89
2022-12-28T08:38:48.863Z,7.01
2022-12-28T08:41:18.421Z,7.01
2022-12-28T08:43:46.103Z,6.95
2022-12-28T08:46:18.531Z,6.97
2022-12-28T08:48:46.341Z,7.08
2022-12-28T08:51:18.751Z,7.11
2022-12-28T08:53:46.264Z,7.09
2022-12-28T08:56:18.219Z,7.11
2022-12-28T08:58:46.533Z,7.09
2022-12-28T09:01:16.501Z,7.18
2022-12-28T09:03:47.665Z,7.28
2022-12-28T09:06:17.149Z,7.20
2022-12-28T09:08:51.397Z,7.29
2022-12-28T09:11:31.181Z,7.32
2022-12-28T09:13:57.851Z,7.30
2022-12-28T09:16:27.618Z,7.38
2022-12-28T09:18:56.325Z,7.35
2022-12-28T09:21:25.794Z,7.48
2022-12-28T09:23:52.627Z,7.43
2022-12-28T09:26:21.494Z,7.43
2022-12-28T09:28:50.438Z,7.44
2022-12-28T09:31:18.480Z,7.48
2022-12-28T09:36:48.044Z,7.49
2022-12-28T09:39:17.736Z,7.58
2022-12-28T09:42:21.688Z,7.65
2022-12-28T09:44:56.083Z,7.67
2022-12-28T09:47:34.943Z,7.80
2022-12-28T09:50:16.809Z,7.78
2022-12-28T09:52:58.183Z,7.80
2022-12-28T09:55:25.879Z,7.84
2022-12-28T09:57:55.968Z,7.95
2022-12-28T10:00:38.126Z,7.95
2022-12-28T10:03:24.709Z,7.96
2022-12-28T10:05:51.975Z,7.97
2022-12-28T10:08:22.683Z,8.05
2022-12-28T10:10:51.438Z,8.08
2022-12-28T10:13:53.159Z,8.13
2022-12-28T10:16:18.014Z,8.03
2022-12-28T10:18:46.121Z,8.10
2022-12-28T10:21:13.987Z,8.17
2022-12-28T10:24:04.496Z,8.12
2022-12-28T10:26:30.013Z,8.23
2022-12-28T10:29:01.002Z,8.34
2022-12-28T10:31:32.211Z,8.27
2022-12-28T10:33:59.579Z,8.38
2022-12-28T10:36:31.575Z,8.37
2022-12-28T10:38:58.780Z,8.42
2022-12-28T10:41:35.860Z,8.42
2022-12-28T10:44:40.594Z,8.55
2022-12-28T10:47:27.628Z,8.56
2022-12-28T10:50:26.599Z,8.66
2022-12-28T10:52:41.840Z,8.58
2022-12-28T10:55:28.182Z,8.59
2022-12-28T11:00:44.540Z,8.62
2022-12-28T11:03:18.881Z,8.72
2022-12-28T11:05:45.803Z,8.71
2022-12-28T11:08:16.362Z,8.80
2022-12-28T11:10:43.436Z,8.77
2022-12-28T11:13:22.271Z,8.86
2022-12-28T11:15:49.385Z,8.85
2022-12-28T11:18:20.273Z,8.89
2022-12-28T11:20:50.855Z,8.94
2022-12-28T11:23:23.568Z,8.92
2022-12-28T11:25:51.159Z,8.99
2022-12-28T11:28:23.088Z,8.98
2022-12-28T11:30:51.869Z,8.99
2022-12-28T11:33:42.213Z,9.03
2022-12-28T11:36:18.183Z,9.06
2022-12-28T11:38:51.176Z,9.04
2022-12-28T11:41:27.549Z,9.10
2022-12-28T11:44:04.790Z,9.07
2022-12-28T11:46:31.450Z,9.09
2022-12-28T11:48:59.681Z,9.07
2022-12-28T11:51:29.566Z,9.07
2022-12-28T11:54:00.742Z,9.08
2022-12-28T11:56:47.442Z,9.07
2022-12-28T11:59:26.512Z,9.11
2022-12-28T12:01:56.092Z,9.13
2022-12-28T12:04:41.159Z,9.16
2022-12-28T12:07:23.675Z,9.15
2022-12-28T12:10:34.911Z,9.19
2022-12-28T12:13:23.994Z,9.23
2022-12-28T12:15:54.273Z,9.18
2022-12-28T12:18:25.636Z,9.24
2022-12-28T12:20:57.176Z,9.31
2022-12-28T12:23:33.541Z,9.27
2022-12-28T12:26:13.705Z,9.27
2022-12-28T12:28:46.093Z,9.32
2022-12-28T12:31:26.132Z,9.29
2022-12-28T12:34:00.615Z,9.31
2022-12-28T12:36:58.882Z,9.26
2022-12-28T12:39:46.814Z,9.34
2022-12-28T12:42:47.466Z,9.31
2022-12-28T12:45:31.188Z,9.26
2022-12-28T12:48:16.833Z,9.31
2022-12-28T12:51:05.094Z,9.32
2022-12-28T12:53:50.636Z,9.38
2022-12-28T12:56:48.314Z,9.43
2022-12-28T12:59:33.748Z,9.39
2022-12-28T13:02:35.881Z,9.38
2022-12-28T13:05:03.993Z,9.33
2022-12-28T13:07:31.305Z,9.37
2022-12-28T13:10:03.528Z,9.30
2022-12-28T13:12:30.452Z,9.34
2022-12-28T13:15:04.863Z,9.31
2022-12-28T13:17:35.937Z,9.23
2022-12-28T13:20:11.350Z,9.22
2022-12-28T13:22:42.595Z,9.30
2022-12-28T13:25:27.695Z,9.27
2022-12-28T13:27:55.416Z,9.31
2022-12-28T13:30:24.455Z,9.25
2022-12-28T13:32:54.004Z,9.29
2022-12-28T13:35:24.529Z,9.22
2022-12-28T13:38:14.638Z,9.15
2022-12-28T13:40:49.673Z,9.14
2022-12-28T13:43:25.457Z,9.11
2022-12-28T13:45:58.641Z,9.08
2022-12-28T13:48:26.980Z,9.20
2022-12-28T13:50:54.728Z,9.12
2022-12-28T13:53:25.320Z,9.11
2022-12-28T13:55:56.280Z,9.08
2022-12-28T13:58:31.636Z,9.17
2022-12-28T14:01:02.869Z,9.10
2022-12-28T14:03:36.028Z,9.17
2022-12-28T14:06:07.417Z,9.09
2022-12-28T14:08:37.721Z,9.08
2022-12-28T14:11:05.777Z,9.11
2022-12-28T14:13:34.331Z,9.10
2022-12-28T14:16:04.135Z,9.06
2022-12-28T14:18:34.865Z,9.04
2022-12-28T14:21:02.801Z,9.14
2022-12-28T14:23:35.765Z,9.04
2022-12-28T14:26:09.808Z,8.98
2022-12-28T14:28:41.541Z,9.00
2022-12-28T14:31:10.311Z,9.03
2022-12-28T14:33:52.197Z,9.00
2022-12-28T14:36:26.408Z,9.04
2022-12-28T14:39:01.155Z,9.01
2022-12-28T14:41:38.115Z,9.09
2022-12-28T14:44:13.601Z,9.11
2022-12-28T14:46:42.824Z,9.06
2022-12-28T14:49:33.714Z,9.24
2022-12-28T14:52:09.404Z,9.31
2022-12-28T14:54:50.677Z,9.21
2022-12-28T14:57:40.749Z,9.25
2022-12-28T15:00:21.227Z,9.33
2022-12-28T15:02:48.758Z,9.30
2022-12-28T15:05:39.228Z,9.29
2022-12-28T15:08:08.789Z,9.29
2022-12-28T15:10:40.356Z,9.32
2022-12-28T15:13:07.328Z,9.26
2022-12-28T15:15:34.390Z,9.28
2022-12-28T15:18:01.335Z,9.33
2022-12-28T15:20:28.183Z,9.27
2022-12-28T15:22:55.031Z,9.32
2022-12-28T15:25:21.933Z,9.33
2022-12-28T15:27:50.052Z,9.33
2022-12-28T15:30:20.585Z,9.38
2022-12-28T15:32:51.831Z,9.47
2022-12-28T15:35:19.039Z,9.38
2022-12-28T15:37:45.861Z,9.43
2022-12-28T15:40:12.697Z,9.45
2022-12-28T15:42:40.775Z,9.46
2022-12-28T15:45:09.190Z,9.37
2022-12-28T15:47:36.153Z,9.45
2022-12-28T15:50:03.583Z,9.41
2022-12-28T15:52:31.989Z,9.47
2022-12-28T15:54:59.139Z,9.47
2022-12-28T15:57:26.445Z,9.41
2022-12-28T15:59:54.664Z,9.46
2022-12-28T16:02:21.951Z,9.42
2022-12-28T16:04:50.004Z,9.41
2022-12-28T16:07:16.765Z,9.46
2022-12-28T16:09:43.517Z,9.47
2022-12-28T16:12:10.349Z,9.47
2022-12-28T16:14:37.159Z,9.56
2022-12-28T16:17:03.909Z,9.43
2022-12-28T16:19:30.700Z,9.40
2022-12-28T16:21:57.416Z,9.53
2022-12-28T16:24:24.135Z,9.46
2022-12-28T16:26:51.905Z,9.29
2022-12-28T16:29:18.634Z,9.38
2022-12-28T16:31:45.416Z,9.50
2022-12-28T16:34:17.345Z,9.36
2022-12-28T16:36:47.913Z,9.32
2022-12-28T16:39:17.535Z,9.49
2022-12-28T16:41:45.063Z,9.46
2022-12-28T16:44:18.052Z,9.49
2022-12-28T16:46:45.494Z,9.40
2022-12-28T16:49:12.796Z,9.43
2022-12-28T16:51:41.426Z,9.48
2022-12-28T16:54:08.743Z,9.48
2022-12-28T16:56:35.957Z,9.33
2022-12-28T16:59:03.269Z,9.46
2022-12-28T17:01:30.098Z,9.40
2022-12-28T17:04:03.410Z,9.39
2022-12-28T17:06:31.760Z,9.21
2022-12-28T17:09:22.519Z,9.16
2022-12-28T17:11:53.533Z,9.12
2022-12-28T17:14:36.243Z,9.11
2022-12-28T17:17:07.303Z,9.10
2022-12-28T17:19:34.322Z,9.11
2022-12-28T17:22:05.314Z,9.06
2022-12-28T17:24:32.176Z,9.08
2022-12-28T17:27:05.164Z,9.11
2022-12-28T17:29:33.857Z,9.04
2022-12-28T17:32:00.878Z,9.10
2022-12-28T17:34:28.946Z,9.01
2022-12-28T17:36:55.646Z,9.10
2022-12-28T17:39:24.884Z,9.09
2022-12-28T17:41:51.662Z,9.06
2022-12-28T17:44:18.388Z,8.95
2022-12-28T17:46:45.111Z,9.00
2022-12-28T17:49:13.964Z,8.97
2022-12-28T17:51:42.062Z,9.05
2022-12-28T17:54:11.279Z,8.89
2022-12-28T17:56:38.837Z,8.92
2022-12-28T17:59:05.662Z,8.96
2022-12-28T18:01:32.862Z,9.01
2022-12-28T18:03:59.964Z,8.83
2022-12-28T18:06:26.800Z,8.96
2022-12-28T18:08:53.537Z,8.91
2022-12-28T18:11:20.309Z,8.88
2022-12-28T18:13:47.696Z,8.84
2022-12-28T18:16:17.100Z,8.89
2022-12-28T18:18:43.873Z,8.88
2022-12-28T18:21:21.481Z,8.99
2022-12-28T18:23:50.598Z,8.85
2022-12-28T18:26:20.297Z,8.89
2022-12-28T18:28:47.025Z,8.89
2022-12-28T18:31:13.861Z,8.93
2022-12-28T18:33:40.659Z,8.92
2022-12-28T18:36:13.818Z,8.93
2022-12-28T18:38:44.033Z,9.02
2022-12-28T18:41:13.020Z,9.02
2022-12-28T18:43:40.400Z,9.01
2022-12-28T18:46:07.696Z,9.07
2022-12-28T18:48:37.393Z,9.01
2022-12-28T18:51:10.744Z,9.09
2022-12-28T18:53:37.887Z,9.15
2022-12-28T18:56:13.833Z,9.14
2022-12-28T18:58:41.683Z,9.09
2022-12-28T19:01:32.863Z,9.03
2022-12-28T19:04:01.222Z,9.13
2022-12-28T19:06:29.216Z,9.02
2022-12-28T19:08:59.798Z,9.01
2022-12-28T19:11:27.733Z,9.02
2022-12-28T19:13:54.551Z,9.01
2022-12-28T19:16:27.183Z,9.06
2022-12-28T19:18:57.964Z,9.05
2022-12-28T19:21:33.048Z,9.04
2022-12-28T19:24:19.980Z,9.15
2022-12-28T19:26:47.677Z,9.18
2022-12-28T19:29:15.681Z,9.14
2022-12-28T19:31:42.933Z,9.03
2022-12-28T19:34:09.763Z,9.07
2022-12-28T19:36:36.528Z,9.03
2022-12-28T19:39:03.271Z,8.95
2022-12-28T19:41:30.060Z,9.12
2022-12-28T19:43:57.171Z,8.98
2022-12-28T19:46:31.910Z,9.00
2022-12-28T19:49:00.968Z,8.96
2022-12-28T19:51:31.092Z,8.92
2022-12-28T19:53:59.089Z,8.99
2022-12-28T19:56:25.886Z,8.91
2022-12-28T19:58:54.420Z,8.89
2022-12-28T20:01:25.972Z,8.89
2022-12-28T20:03:54.386Z,8.91
2022-12-28T20:06:24.022Z,8.92
2022-12-28T20:08:52.370Z,8.96
2022-12-28T20:11:20.679Z,8.81
2022-12-28T20:13:52.191Z,8.79
2022-12-28T20:16:19.368Z,8.71
2022-12-28T20:18:50.833Z,8.81
2022-12-28T20:21:20.751Z,8.87
2022-12-28T20:23:53.002Z,8.76
2022-12-28T20:26:21.699Z,8.77
2022-12-28T20:28:49.501Z,8.78
2022-12-28T20:31:16.875Z,8.78
2022-12-28T20:33:44.120Z,8.74
2022-12-28T20:36:13.950Z,8.67
2022-12-28T20:38:40.862Z,8.74
2022-12-28T20:41:37.701Z,8.68
2022-12-28T20:44:09.092Z,8.73
2022-12-28T20:46:36.178Z,8.76
2022-12-28T20:49:03.655Z,8.71
2022-12-28T20:51:30.540Z,8.67
2022-12-28T20:53:57.263Z,8.67
2022-12-28T20:56:24.033Z,8.68
2022-12-28T20:58:50.735Z,8.64
2022-12-28T21:01:18.020Z,8.65
2022-12-28T21:03:45.621Z,8.65
2022-12-28T21:06:12.852Z,8.61
2022-12-28T21:08:39.588Z,8.62
2022-12-28T21:11:06.574Z,8.63
2022-12-28T21:13:33.323Z,8.67
2022-12-28T21:16:04.298Z,8.63
2022-12-28T21:18:31.631Z,8.60
2022-12-28T21:20:59.979Z,8.65
2022-12-28T21:23:27.921Z,8.63
2022-12-28T21:26:05.842Z,8.69
2022-12-28T21:28:33.879Z,8.55
2022-12-28T21:31:03.644Z,8.57
2022-12-28T21:33:31.188Z,8.61
2022-12-28T21:36:03.216Z,8.66
2022-12-28T21:38:32.085Z,8.64
2022-12-28T21:41:01.930Z,8.64
2022-12-28T21:43:30.284Z,8.62
2022-12-28T21:46:05.333Z,8.62
2022-12-28T21:48:33.048Z,8.63
2022-12-28T21:51:05.811Z,8.55
2022-12-28T21:53:32.684Z,8.62
2022-12-28T21:55:59.372Z,8.59
2022-12-28T21:58:26.575Z,8.65
2022-12-28T22:01:19.398Z,8.64
2022-12-28T22:04:04.810Z,8.69
2022-12-28T22:06:31.701Z,8.56
2022-12-28T22:09:16.937Z,8.60
2022-12-28T22:12:06.609Z,8.68
2022-12-28T22:14:33.432Z,8.71
2022-12-28T22:17:00.181Z,8.72
2022-12-28T22:19:27.762Z,8.61
2022-12-28T22:21:54.623Z,8.65
2022-12-28T22:24:21.325Z,8.68
2022-12-28T22:26:48.093Z,8.67
2022-12-28T22:29:15.488Z,8.61
2022-12-28T22:31:42.339Z,8.70
2022-12-28T22:34:09.062Z,8.61
2022-12-28T22:36:35.990Z,8.64
2022-12-28T22:39:02.612Z,8.59
2022-12-28T22:41:29.286Z,8.60
2022-12-28T22:43:56.034Z,8.59
2022-12-28T22:46:22.719Z,8.62
2022-12-28T22:48:49.554Z,8.59
2022-12-28T22:51:16.807Z,8.51
2022-12-28T22:53:44.619Z,8.58
2022-12-28T22:56:20.644Z,8.57
2022-12-28T22:58:47.776Z,8.63
2022-12-28T23:01:17.889Z,8.63
2022-12-28T23:03:46.468Z,8.58
2022-12-28T23:06:16.280Z,8.55
2022-12-28T23:08:43.106Z,8.56
2022-12-28T23:11:31.942Z,8.63
2022-12-28T23:14:18.995Z,8.47
2022-12-28T23:16:45.858Z,8.62
2022-12-28T23:19:31.183Z,8.65
2022-12-28T23:22:16.466Z,8.69
2022-12-28T23:25:01.658Z,8.65
2022-12-28T23:27:38.747Z,8.62
2022-12-28T23:30:08.234Z,8.63
2022-12-28T23:32:35.226Z,8.62
2022-12-28T23:35:02.331Z,8.64
2022-12-28T23:37:29.073Z,8.65
2022-12-28T23:39:55.774Z,8.72
2022-12-28T23:42:22.505Z,8.70
2022-12-28T23:44:49.811Z,8.71
2022-12-28T23:47:17.104Z,8.72
2022-12-28T23:49:43.909Z,8.68
2022-12-28T23:52:11.000Z,8.60
2022-12-28T23:54:38.422Z,8.78
2022-12-28T23:57:06.627Z,8.75
2022-12-28T23:59:33.327Z,8.64
